sensor_id;sensor_type;location;lat;lon;timestamp;temperature;humidity
27667;DHT22;15074;50.940;5.282;2022-11-18T00:00:26;9.30;99.90
27667;DHT22;15074;50.940;5.282;2022-11-18T00:02:51;9.30;99.90
27667;DHT22;15074;50.940;5.282;2022-11-18T00:05:17;9.20;99.90
27667;DHT22;15074;50.940;5.282;2022-11-18T00:07:42;9.20;99.90
27667;DHT22;15074;50.940;5.282;2022-11-18T00:10:08;9.20;99.90
27667;DHT22;15074;50.940;5.282;2022-11-18T00:12:34;9.10;99.90
27667;DHT22;15074;50.940;5.282;2022-11-18T00:15:18;9.10;99.90
27667;DHT22;15074;50.940;5.282;2022-11-18T00:17:43;9.20;99.90
27667;DHT22;15074;50.940;5.282;2022-11-18T00:20:09;9.20;99.90
27667;DHT22;15074;50.940;5.282;2022-11-18T00:22:35;9.20;99.90
27667;DHT22;15074;50.940;5.282;2022-11-18T00:25:00;9.30;99.90
27667;DHT22;15074;50.940;5.282;2022-11-18T00:27:29;9.20;99.90
27667;DHT22;15074;50.940;5.282;2022-11-18T00:29:56;9.20;99.90
27667;DHT22;15074;50.940;5.282;2022-11-18T00:32:21;9.20;99.90
27667;DHT22;15074;50.940;5.282;2022-11-18T00:34:47;9.20;99.90
27667;DHT22;15074;50.940;5.282;2022-11-18T00:37:13;9.20;99.90
27667;DHT22;15074;50.940;5.282;2022-11-18T00:39:38;9.20;99.90
27667;DHT22;15074;50.940;5.282;2022-11-18T00:42:04;9.20;99.90
27667;DHT22;15074;50.940;5.282;2022-11-18T00:44:48;9.10;99.90
27667;DHT22;15074;50.940;5.282;2022-11-18T00:47:13;9.10;99.90
27667;DHT22;15074;50.940;5.282;2022-11-18T00:49:39;8.90;99.90
27667;DHT22;15074;50.940;5.282;2022-11-18T00:52:04;8.90;99.90
27667;DHT22;15074;50.940;5.282;2022-11-18T00:54:30;8.90;99.90
27667;DHT22;15074;50.940;5.282;2022-11-18T00:56:56;8.80;99.90
27667;DHT22;15074;50.940;5.282;2022-11-18T00:59:22;8.80;99.90
27667;DHT22;15074;50.940;5.282;2022-11-18T01:01:48;8.80;99.90
27667;DHT22;15074;50.940;5.282;2022-11-18T01:04:13;8.80;99.90
27667;DHT22;15074;50.940;5.282;2022-11-18T01:06:39;8.80;99.90
27667;DHT22;15074;50.940;5.282;2022-11-18T01:09:05;8.80;99.90
27667;DHT22;15074;50.940;5.282;2022-11-18T01:11:31;8.80;99.90
27667;DHT22;15074;50.940;5.282;2022-11-18T01:14:15;8.90;99.90
27667;DHT22;15074;50.940;5.282;2022-11-18T01:16:40;8.90;99.90
27667;DHT22;15074;50.940;5.282;2022-11-18T01:19:06;8.90;99.90
27667;DHT22;15074;50.940;5.282;2022-11-18T01:21:32;8.80;99.90
27667;DHT22;15074;50.940;5.282;2022-11-18T01:23:57;8.60;99.90
27667;DHT22;15074;50.940;5.282;2022-11-18T01:26:23;8.60;99.90
27667;DHT22;15074;50.940;5.282;2022-11-18T01:28:48;8.60;99.90
27667;DHT22;15074;50.940;5.282;2022-11-18T01:31:17;8.60;99.90
27667;DHT22;15074;50.940;5.282;2022-11-18T01:33:43;8.70;99.90
27667;DHT22;15074;50.940;5.282;2022-11-18T01:36:18;8.70;99.90
27667;DHT22;15074;50.940;5.282;2022-11-18T01:38:44;8.80;99.90
27667;DHT22;15074;50.940;5.282;2022-11-18T01:41:11;8.80;99.90
27667;DHT22;15074;50.940;5.282;2022-11-18T01:46:14;8.80;99.90
27667;DHT22;15074;50.940;5.282;2022-11-18T01:48:40;8.80;99.90
27667;DHT22;15074;50.940;5.282;2022-11-18T01:51:15;8.90;99.90
27667;DHT22;15074;50.940;5.282;2022-11-18T01:53:49;9.00;99.90
27667;DHT22;15074;50.940;5.282;2022-11-18T01:56:19;9.00;99.90
27667;DHT22;15074;50.940;5.282;2022-11-18T01:58:53;9.00;99.90
27667;DHT22;15074;50.940;5.282;2022-11-18T02:01:21;9.00;99.90
27667;DHT22;15074;50.940;5.282;2022-11-18T02:03:48;9.00;99.90
27667;DHT22;15074;50.940;5.282;2022-11-18T02:06:15;9.00;99.90
27667;DHT22;15074;50.940;5.282;2022-11-18T02:08:41;9.00;99.90
27667;DHT22;15074;50.940;5.282;2022-11-18T02:11:14;9.00;99.90
27667;DHT22;15074;50.940;5.282;2022-11-18T02:14:01;9.10;99.90
27667;DHT22;15074;50.940;5.282;2022-11-18T02:16:47;9.10;99.90
27667;DHT22;15074;50.940;5.282;2022-11-18T02:25:01;9.20;99.90
27667;DHT22;15074;50.940;5.282;2022-11-18T02:27:39;9.20;99.90
27667;DHT22;15074;50.940;5.282;2022-11-18T02:30:11;9.20;99.90
27667;DHT22;15074;50.940;5.282;2022-11-18T02:32:56;9.20;99.90
27667;DHT22;15074;50.940;5.282;2022-11-18T02:35:33;9.30;99.90
27667;DHT22;15074;50.940;5.282;2022-11-18T02:38:08;9.20;99.90
27667;DHT22;15074;50.940;5.282;2022-11-18T02:40:40;9.20;99.90
27667;DHT22;15074;50.940;5.282;2022-11-18T02:43:45;9.20;99.90
27667;DHT22;15074;50.940;5.282;2022-11-18T02:46:06;9.20;99.90
27667;DHT22;15074;50.940;5.282;2022-11-18T02:48:38;9.20;99.90
27667;DHT22;15074;50.940;5.282;2022-11-18T02:51:06;9.20;99.90
27667;DHT22;15074;50.940;5.282;2022-11-18T02:53:35;9.20;99.90
27667;DHT22;15074;50.940;5.282;2022-11-18T02:56:03;9.20;99.90
27667;DHT22;15074;50.940;5.282;2022-11-18T02:58:29;9.20;99.90
27667;DHT22;15074;50.940;5.282;2022-11-18T03:01:00;9.20;99.90
27667;DHT22;15074;50.940;5.282;2022-11-18T03:03:27;9.20;99.90
27667;DHT22;15074;50.940;5.282;2022-11-18T03:08:34;9.20;99.90
27667;DHT22;15074;50.940;5.282;2022-11-18T03:11:21;9.20;99.90
27667;DHT22;15074;50.940;5.282;2022-11-18T03:14:01;9.20;99.90
27667;DHT22;15074;50.940;5.282;2022-11-18T03:19:41;9.10;99.90
27667;DHT22;15074;50.940;5.282;2022-11-18T03:22:18;9.10;99.90
27667;DHT22;15074;50.940;5.282;2022-11-18T03:25:08;9.10;99.90
27667;DHT22;15074;50.940;5.282;2022-11-18T03:27:52;9.10;99.90
27667;DHT22;15074;50.940;5.282;2022-11-18T03:30:21;9.10;99.90
27667;DHT22;15074;50.940;5.282;2022-11-18T03:32:50;9.10;99.90
27667;DHT22;15074;50.940;5.282;2022-11-18T03:35:21;9.10;99.90
27667;DHT22;15074;50.940;5.282;2022-11-18T03:37:51;9.00;99.90
27667;DHT22;15074;50.940;5.282;2022-11-18T03:40:21;9.00;99.90
27667;DHT22;15074;50.940;5.282;2022-11-18T03:42:55;9.10;99.90
27667;DHT22;15074;50.940;5.282;2022-11-18T03:45:29;9.00;99.90
27667;DHT22;15074;50.940;5.282;2022-11-18T03:48:08;9.00;99.90
27667;DHT22;15074;50.940;5.282;2022-11-18T03:50:40;8.90;99.90
27667;DHT22;15074;50.940;5.282;2022-11-18T03:53:07;8.80;99.90
27667;DHT22;15074;50.940;5.282;2022-11-18T03:55:41;8.80;99.90
27667;DHT22;15074;50.940;5.282;2022-11-18T03:58:26;8.70;99.90
27667;DHT22;15074;50.940;5.282;2022-11-18T04:00:58;8.60;99.90
27667;DHT22;15074;50.940;5.282;2022-11-18T04:03:26;8.60;99.90
27667;DHT22;15074;50.940;5.282;2022-11-18T04:05:58;8.50;99.90
27667;DHT22;15074;50.940;5.282;2022-11-18T04:08:32;8.40;99.90
27667;DHT22;15074;50.940;5.282;2022-11-18T04:11:16;8.40;99.90
27667;DHT22;15074;50.940;5.282;2022-11-18T04:14:03;8.30;99.90
27667;DHT22;15074;50.940;5.282;2022-11-18T04:16:36;8.30;99.90
27667;DHT22;15074;50.940;5.282;2022-11-18T04:19:02;8.30;99.90
27667;DHT22;15074;50.940;5.282;2022-11-18T04:21:28;8.20;99.90
27667;DHT22;15074;50.940;5.282;2022-11-18T04:23:53;8.20;99.90
27667;DHT22;15074;50.940;5.282;2022-11-18T04:26:19;8.20;99.90
27667;DHT22;15074;50.940;5.282;2022-11-18T04:28:44;8.10;99.90
27667;DHT22;15074;50.940;5.282;2022-11-18T04:31:10;8.10;99.90
27667;DHT22;15074;50.940;5.282;2022-11-18T04:33:36;8.10;99.90
27667;DHT22;15074;50.940;5.282;2022-11-18T04:36:01;8.00;99.90
27667;DHT22;15074;50.940;5.282;2022-11-18T04:38:27;8.00;99.90
27667;DHT22;15074;50.940;5.282;2022-11-18T04:40:52;8.00;99.90
27667;DHT22;15074;50.940;5.282;2022-11-18T04:43:18;7.90;99.90
27667;DHT22;15074;50.940;5.282;2022-11-18T04:45:44;7.90;99.90
27667;DHT22;15074;50.940;5.282;2022-11-18T04:48:09;7.80;99.90
27667;DHT22;15074;50.940;5.282;2022-11-18T04:50:35;7.80;99.90
27667;DHT22;15074;50.940;5.282;2022-11-18T04:53:01;7.80;99.90
27667;DHT22;15074;50.940;5.282;2022-11-18T04:55:26;7.70;99.90
27667;DHT22;15074;50.940;5.282;2022-11-18T04:57:52;7.70;99.90
27667;DHT22;15074;50.940;5.282;2022-11-18T05:00:17;7.70;99.90
27667;DHT22;15074;50.940;5.282;2022-11-18T05:02:43;7.60;99.90
27667;DHT22;15074;50.940;5.282;2022-11-18T05:05:09;7.60;99.90
27667;DHT22;15074;50.940;5.282;2022-11-18T05:07:34;7.50;99.90
27667;DHT22;15074;50.940;5.282;2022-11-18T05:10:00;7.50;99.90
27667;DHT22;15074;50.940;5.282;2022-11-18T05:12:27;7.60;99.90
27667;DHT22;15074;50.940;5.282;2022-11-18T05:15:11;7.50;99.90
27667;DHT22;15074;50.940;5.282;2022-11-18T05:17:37;7.50;99.90
27667;DHT22;15074;50.940;5.282;2022-11-18T05:20:03;7.50;99.90
27667;DHT22;15074;50.940;5.282;2022-11-18T05:22:29;7.50;99.90
27667;DHT22;15074;50.940;5.282;2022-11-18T05:24:54;7.50;99.90
27667;DHT22;15074;50.940;5.282;2022-11-18T05:27:20;7.50;99.90
27667;DHT22;15074;50.940;5.282;2022-11-18T05:29:46;7.40;99.90
27667;DHT22;15074;50.940;5.282;2022-11-18T05:32:11;7.40;99.90
27667;DHT22;15074;50.940;5.282;2022-11-18T05:34:39;7.40;99.90
27667;DHT22;15074;50.940;5.282;2022-11-18T05:37:04;7.40;99.90
27667;DHT22;15074;50.940;5.282;2022-11-18T05:39:31;7.40;99.90
27667;DHT22;15074;50.940;5.282;2022-11-18T05:41:58;7.30;99.90
27667;DHT22;15074;50.940;5.282;2022-11-18T05:44:42;7.30;99.90
27667;DHT22;15074;50.940;5.282;2022-11-18T05:47:08;7.30;99.90
27667;DHT22;15074;50.940;5.282;2022-11-18T05:49:34;7.30;99.90
27667;DHT22;15074;50.940;5.282;2022-11-18T05:52:00;7.30;99.90
27667;DHT22;15074;50.940;5.282;2022-11-18T05:54:25;7.30;99.90
27667;DHT22;15074;50.940;5.282;2022-11-18T05:56:51;7.30;99.90
27667;DHT22;15074;50.940;5.282;2022-11-18T05:59:17;7.30;99.90
27667;DHT22;15074;50.940;5.282;2022-11-18T06:04:36;7.10;99.90
27667;DHT22;15074;50.940;5.282;2022-11-18T06:07:07;7.10;99.90
27667;DHT22;15074;50.940;5.282;2022-11-18T06:09:37;7.00;99.90
27667;DHT22;15074;50.940;5.282;2022-11-18T06:12:04;7.00;99.90
27667;DHT22;15074;50.940;5.282;2022-11-18T06:14:43;6.90;99.90
27667;DHT22;15074;50.940;5.282;2022-11-18T06:17:24;6.90;99.90
27667;DHT22;15074;50.940;5.282;2022-11-18T06:19:51;6.90;99.90
27667;DHT22;15074;50.940;5.282;2022-11-18T06:22:17;6.90;99.90
27667;DHT22;15074;50.940;5.282;2022-11-18T06:24:43;6.90;99.90
27667;DHT22;15074;50.940;5.282;2022-11-18T06:27:09;7.00;99.90
27667;DHT22;15074;50.940;5.282;2022-11-18T06:29:34;7.10;99.90
27667;DHT22;15074;50.940;5.282;2022-11-18T06:32:00;7.20;99.90
27667;DHT22;15074;50.940;5.282;2022-11-18T06:34:26;7.30;99.90
27667;DHT22;15074;50.940;5.282;2022-11-18T06:36:51;7.10;99.90
27667;DHT22;15074;50.940;5.282;2022-11-18T06:39:17;7.10;99.90
27667;DHT22;15074;50.940;5.282;2022-11-18T06:41:43;7.00;99.90
27667;DHT22;15074;50.940;5.282;2022-11-18T06:44:10;7.00;99.90
27667;DHT22;15074;50.940;5.282;2022-11-18T06:46:36;7.00;99.90
27667;DHT22;15074;50.940;5.282;2022-11-18T06:49:20;7.00;99.90
27667;DHT22;15074;50.940;5.282;2022-11-18T07:05:36;6.70;99.90
27667;DHT22;15074;50.940;5.282;2022-11-18T07:08:01;6.70;99.90
27667;DHT22;15074;50.940;5.282;2022-11-18T07:10:27;6.80;99.90
27667;DHT22;15074;50.940;5.282;2022-11-18T07:12:53;6.90;99.90
27667;DHT22;15074;50.940;5.282;2022-11-18T07:15:18;6.90;99.90
27667;DHT22;15074;50.940;5.282;2022-11-18T07:17:44;7.00;99.90
27667;DHT22;15074;50.940;5.282;2022-11-18T07:20:10;7.00;99.90
27667;DHT22;15074;50.940;5.282;2022-11-18T07:22:35;7.00;99.90
27667;DHT22;15074;50.940;5.282;2022-11-18T07:25:01;7.00;99.90
27667;DHT22;15074;50.940;5.282;2022-11-18T07:27:26;7.00;99.90
27667;DHT22;15074;50.940;5.282;2022-11-18T07:29:52;7.00;99.90
27667;DHT22;15074;50.940;5.282;2022-11-18T07:32:18;7.00;99.90
27667;DHT22;15074;50.940;5.282;2022-11-18T07:34:43;7.10;99.90
27667;DHT22;15074;50.940;5.282;2022-11-18T07:37:10;7.00;99.90
27667;DHT22;15074;50.940;5.282;2022-11-18T07:39:35;7.10;99.90
27667;DHT22;15074;50.940;5.282;2022-11-18T07:42:01;7.10;99.90
27667;DHT22;15074;50.940;5.282;2022-11-18T07:44:26;7.30;99.90
27667;DHT22;15074;50.940;5.282;2022-11-18T07:46:52;7.30;99.90
27667;DHT22;15074;50.940;5.282;2022-11-18T07:49:18;7.50;99.90
27667;DHT22;15074;50.940;5.282;2022-11-18T07:51:43;7.60;99.90
27667;DHT22;15074;50.940;5.282;2022-11-18T07:54:13;7.80;99.90
27667;DHT22;15074;50.940;5.282;2022-11-18T07:56:41;8.40;99.90
27667;DHT22;15074;50.940;5.282;2022-11-18T07:59:07;8.90;99.90
27667;DHT22;15074;50.940;5.282;2022-11-18T08:01:33;9.30;99.90
27667;DHT22;15074;50.940;5.282;2022-11-18T08:04:07;9.50;99.90
27667;DHT22;15074;50.940;5.282;2022-11-18T08:06:33;9.60;99.90
27667;DHT22;15074;50.940;5.282;2022-11-18T08:08:59;9.60;99.90
27667;DHT22;15074;50.940;5.282;2022-11-18T08:11:25;9.60;99.90
27667;DHT22;15074;50.940;5.282;2022-11-18T08:13:51;10.00;99.90
27667;DHT22;15074;50.940;5.282;2022-11-18T08:16:19;10.80;99.90
27667;DHT22;15074;50.940;5.282;2022-11-18T08:18:46;11.50;99.90
27667;DHT22;15074;50.940;5.282;2022-11-18T08:21:12;11.90;99.90
27667;DHT22;15074;50.940;5.282;2022-11-18T08:23:39;12.70;99.90
27667;DHT22;15074;50.940;5.282;2022-11-18T08:26:07;12.70;99.90
27667;DHT22;15074;50.940;5.282;2022-11-18T08:28:33;13.50;99.90
27667;DHT22;15074;50.940;5.282;2022-11-18T08:30:59;14.10;99.90
27667;DHT22;15074;50.940;5.282;2022-11-18T08:33:25;14.80;99.90
27667;DHT22;15074;50.940;5.282;2022-11-18T08:35:51;14.90;99.90
27667;DHT22;15074;50.940;5.282;2022-11-18T08:38:17;14.80;99.90
27667;DHT22;15074;50.940;5.282;2022-11-18T08:40:45;14.60;99.90
27667;DHT22;15074;50.940;5.282;2022-11-18T08:43:12;14.60;99.90
27667;DHT22;15074;50.940;5.282;2022-11-18T08:45:41;14.50;99.90
27667;DHT22;15074;50.940;5.282;2022-11-18T08:48:06;14.50;99.90
27667;DHT22;15074;50.940;5.282;2022-11-18T08:50:32;14.30;99.90
27667;DHT22;15074;50.940;5.282;2022-11-18T08:52:58;13.40;99.90
27667;DHT22;15074;50.940;5.282;2022-11-18T08:55:28;13.60;99.90
27667;DHT22;15074;50.940;5.282;2022-11-18T08:57:54;13.20;99.90
27667;DHT22;15074;50.940;5.282;2022-11-18T09:00:19;13.00;99.90
27667;DHT22;15074;50.940;5.282;2022-11-18T09:02:45;13.00;99.90
27667;DHT22;15074;50.940;5.282;2022-11-18T09:05:11;12.90;99.90
27667;DHT22;15074;50.940;5.282;2022-11-18T09:07:36;12.20;99.90
27667;DHT22;15074;50.940;5.282;2022-11-18T09:10:02;11.70;99.90
27667;DHT22;15074;50.940;5.282;2022-11-18T09:12:28;11.10;99.90
27667;DHT22;15074;50.940;5.282;2022-11-18T09:14:54;11.20;99.90
27667;DHT22;15074;50.940;5.282;2022-11-18T09:17:19;11.20;99.90
27667;DHT22;15074;50.940;5.282;2022-11-18T09:19:45;11.40;99.90
27667;DHT22;15074;50.940;5.282;2022-11-18T09:22:10;11.60;99.90
27667;DHT22;15074;50.940;5.282;2022-11-18T09:24:36;11.60;99.90
27667;DHT22;15074;50.940;5.282;2022-11-18T09:27:03;12.00;99.90
27667;DHT22;15074;50.940;5.282;2022-11-18T09:29:30;12.40;99.90
27667;DHT22;15074;50.940;5.282;2022-11-18T09:31:55;13.00;99.90
27667;DHT22;15074;50.940;5.282;2022-11-18T09:34:22;13.10;99.90
27667;DHT22;15074;50.940;5.282;2022-11-18T09:36:48;12.80;99.90
27667;DHT22;15074;50.940;5.282;2022-11-18T09:39:14;12.40;99.90
27667;DHT22;15074;50.940;5.282;2022-11-18T09:42:19;11.50;99.90
27667;DHT22;15074;50.940;5.282;2022-11-18T09:45:12;11.10;99.90
27667;DHT22;15074;50.940;5.282;2022-11-18T09:47:40;11.00;99.90
27667;DHT22;15074;50.940;5.282;2022-11-18T09:50:13;10.90;99.90
27667;DHT22;15074;50.940;5.282;2022-11-18T09:55:18;10.70;99.90
27667;DHT22;15074;50.940;5.282;2022-11-18T09:57:52;10.70;99.90
27667;DHT22;15074;50.940;5.282;2022-11-18T10:00:22;10.60;99.90
27667;DHT22;15074;50.940;5.282;2022-11-18T10:03:06;10.80;99.90
27667;DHT22;15074;50.940;5.282;2022-11-18T10:05:59;10.70;99.90
27667;DHT22;15074;50.940;5.282;2022-11-18T10:08:35;10.80;99.90
27667;DHT22;15074;50.940;5.282;2022-11-18T10:11:13;10.80;99.90
27667;DHT22;15074;50.940;5.282;2022-11-18T10:16:59;10.90;99.90
27667;DHT22;15074;50.940;5.282;2022-11-18T10:19:33;10.90;99.90
27667;DHT22;15074;50.940;5.282;2022-11-18T10:24:53;10.80;99.90
27667;DHT22;15074;50.940;5.282;2022-11-18T10:27:19;10.70;99.90
27667;DHT22;15074;50.940;5.282;2022-11-18T10:29:51;10.70;99.90
27667;DHT22;15074;50.940;5.282;2022-11-18T10:32:17;10.70;99.90
27667;DHT22;15074;50.940;5.282;2022-11-18T10:34:51;10.70;99.90
27667;DHT22;15074;50.940;5.282;2022-11-18T10:37:35;10.80;99.90
27667;DHT22;15074;50.940;5.282;2022-11-18T10:40:04;10.80;99.90
27667;DHT22;15074;50.940;5.282;2022-11-18T10:42:44;10.80;99.90
27667;DHT22;15074;50.940;5.282;2022-11-18T10:48:18;10.80;99.90
27667;DHT22;15074;50.940;5.282;2022-11-18T10:50:49;10.70;99.90
27667;DHT22;15074;50.940;5.282;2022-11-18T10:56:15;10.70;99.90
27667;DHT22;15074;50.940;5.282;2022-11-18T10:58:46;10.80;99.90
27667;DHT22;15074;50.940;5.282;2022-11-18T11:01:23;10.90;99.90
27667;DHT22;15074;50.940;5.282;2022-11-18T11:03:59;10.80;99.90
27667;DHT22;15074;50.940;5.282;2022-11-18T11:06:33;11.00;99.90
27667;DHT22;15074;50.940;5.282;2022-11-18T11:11:58;10.90;99.90
27667;DHT22;15074;50.940;5.282;2022-11-18T11:14:39;10.90;99.90
27667;DHT22;15074;50.940;5.282;2022-11-18T11:17:16;11.00;99.90
27667;DHT22;15074;50.940;5.282;2022-11-18T11:20:31;11.00;99.90
27667;DHT22;15074;50.940;5.282;2022-11-18T11:22:38;10.90;99.90
27667;DHT22;15074;50.940;5.282;2022-11-18T11:25:17;11.00;99.90
27667;DHT22;15074;50.940;5.282;2022-11-18T11:30:34;11.00;99.90
27667;DHT22;15074;50.940;5.282;2022-11-18T11:36:49;11.00;99.90
27667;DHT22;15074;50.940;5.282;2022-11-18T11:42:26;11.00;99.90
27667;DHT22;15074;50.940;5.282;2022-11-18T11:56:13;11.40;99.90
27667;DHT22;15074;50.940;5.282;2022-11-18T12:04:56;11.50;99.90
27667;DHT22;15074;50.940;5.282;2022-11-18T12:07:35;11.40;99.90
27667;DHT22;15074;50.940;5.282;2022-11-18T12:19:18;11.70;99.90
27667;DHT22;15074;50.940;5.282;2022-11-18T12:26:48;12.70;99.90
27667;DHT22;15074;50.940;5.282;2022-11-18T12:31:44;13.00;99.90
27667;DHT22;15074;50.940;5.282;2022-11-18T12:34:39;12.80;99.90
27667;DHT22;15074;50.940;5.282;2022-11-18T12:50:55;11.90;99.90
27667;DHT22;15074;50.940;5.282;2022-11-18T12:56:35;11.90;99.90
27667;DHT22;15074;50.940;5.282;2022-11-18T12:59:01;11.90;99.90
27667;DHT22;15074;50.940;5.282;2022-11-18T13:01:32;11.90;99.90
27667;DHT22;15074;50.940;5.282;2022-11-18T13:04:27;11.90;99.90
27667;DHT22;15074;50.940;5.282;2022-11-18T13:06:53;11.80;99.90
27667;DHT22;15074;50.940;5.282;2022-11-18T13:09:24;11.80;99.90
27667;DHT22;15074;50.940;5.282;2022-11-18T13:11:53;11.80;99.90
27667;DHT22;15074;50.940;5.282;2022-11-18T13:14:32;11.90;99.90
27667;DHT22;15074;50.940;5.282;2022-11-18T13:17:24;12.00;99.90
27667;DHT22;15074;50.940;5.282;2022-11-18T13:20:27;12.00;99.90
27667;DHT22;15074;50.940;5.282;2022-11-18T13:26:22;11.90;99.90
27667;DHT22;15074;50.940;5.282;2022-11-18T13:34:21;11.80;99.90
27667;DHT22;15074;50.940;5.282;2022-11-18T13:37:24;11.70;99.90
27667;DHT22;15074;50.940;5.282;2022-11-18T13:39:50;11.90;99.90
27667;DHT22;15074;50.940;5.282;2022-11-18T13:42:22;11.80;99.90
27667;DHT22;15074;50.940;5.282;2022-11-18T13:51:40;11.80;99.90
27667;DHT22;15074;50.940;5.282;2022-11-18T13:57:33;11.50;99.90
27667;DHT22;15074;50.940;5.282;2022-11-18T14:13:22;11.30;99.90
27667;DHT22;15074;50.940;5.282;2022-11-18T14:28:33;11.10;99.90
27667;DHT22;15074;50.940;5.282;2022-11-18T14:34:23;11.00;99.90
27667;DHT22;15074;50.940;5.282;2022-11-18T14:36:50;11.00;99.90
27667;DHT22;15074;50.940;5.282;2022-11-18T14:39:24;10.90;99.90
27667;DHT22;15074;50.940;5.282;2022-11-18T14:41:51;10.80;99.90
27667;DHT22;15074;50.940;5.282;2022-11-18T14:44:18;10.70;99.90
27667;DHT22;15074;50.940;5.282;2022-11-18T14:46:47;10.60;99.90
27667;DHT22;15074;50.940;5.282;2022-11-18T14:49:19;10.50;99.90
27667;DHT22;15074;50.940;5.282;2022-11-18T14:51:46;10.50;99.90
27667;DHT22;15074;50.940;5.282;2022-11-18T14:54:17;10.50;99.90
27667;DHT22;15074;50.940;5.282;2022-11-18T14:56:44;10.50;99.90
27667;DHT22;15074;50.940;5.282;2022-11-18T14:59:11;10.50;99.90
27667;DHT22;15074;50.940;5.282;2022-11-18T15:01:38;10.30;99.90
27667;DHT22;15074;50.940;5.282;2022-11-18T15:04:04;10.20;99.90
27667;DHT22;15074;50.940;5.282;2022-11-18T15:06:30;10.30;99.90
27667;DHT22;15074;50.940;5.282;2022-11-18T15:08:55;10.30;99.90
27667;DHT22;15074;50.940;5.282;2022-11-18T15:11:21;10.20;99.90
27667;DHT22;15074;50.940;5.282;2022-11-18T15:13:48;10.30;99.90
27667;DHT22;15074;50.940;5.282;2022-11-18T15:16:17;10.30;99.90
27667;DHT22;15074;50.940;5.282;2022-11-18T15:18:44;10.30;99.90
27667;DHT22;15074;50.940;5.282;2022-11-18T15:21:12;10.30;99.90
27667;DHT22;15074;50.940;5.282;2022-11-18T15:23:38;10.10;99.90
27667;DHT22;15074;50.940;5.282;2022-11-18T15:26:34;9.80;99.90
27667;DHT22;15074;50.940;5.282;2022-11-18T15:29:01;9.90;99.90
27667;DHT22;15074;50.940;5.282;2022-11-18T15:31:27;9.80;99.90
27667;DHT22;15074;50.940;5.282;2022-11-18T15:33:53;10.00;99.90
27667;DHT22;15074;50.940;5.282;2022-11-18T15:36:21;10.10;99.90
27667;DHT22;15074;50.940;5.282;2022-11-18T15:38:49;10.10;99.90
27667;DHT22;15074;50.940;5.282;2022-11-18T15:41:28;10.20;99.90
27667;DHT22;15074;50.940;5.282;2022-11-18T15:43:55;10.20;99.90
27667;DHT22;15074;50.940;5.282;2022-11-18T15:46:23;10.20;99.90
27667;DHT22;15074;50.940;5.282;2022-11-18T15:48:53;10.30;99.90
27667;DHT22;15074;50.940;5.282;2022-11-18T15:51:20;10.20;99.90
27667;DHT22;15074;50.940;5.282;2022-11-18T15:53:46;10.10;99.90
27667;DHT22;15074;50.940;5.282;2022-11-18T15:58:59;9.70;99.90
27667;DHT22;15074;50.940;5.282;2022-11-18T16:01:27;9.70;99.90
27667;DHT22;15074;50.940;5.282;2022-11-18T16:03:54;9.70;99.90
27667;DHT22;15074;50.940;5.282;2022-11-18T16:06:20;9.60;99.90
27667;DHT22;15074;50.940;5.282;2022-11-18T16:08:46;9.60;99.90
27667;DHT22;15074;50.940;5.282;2022-11-18T16:11:14;9.70;99.90
27667;DHT22;15074;50.940;5.282;2022-11-18T16:14:09;9.70;99.90
27667;DHT22;15074;50.940;5.282;2022-11-18T16:16:37;9.70;99.90
27667;DHT22;15074;50.940;5.282;2022-11-18T16:19:06;9.90;99.90
27667;DHT22;15074;50.940;5.282;2022-11-18T16:21:35;9.90;99.90
27667;DHT22;15074;50.940;5.282;2022-11-18T16:24:02;10.00;99.90
27667;DHT22;15074;50.940;5.282;2022-11-18T16:26:30;10.00;99.90
27667;DHT22;15074;50.940;5.282;2022-11-18T16:28:56;10.10;99.90
27667;DHT22;15074;50.940;5.282;2022-11-18T16:31:22;10.10;99.90
27667;DHT22;15074;50.940;5.282;2022-11-18T16:34:25;10.00;99.90
27667;DHT22;15074;50.940;5.282;2022-11-18T16:36:53;9.80;99.90
27667;DHT22;15074;50.940;5.282;2022-11-18T16:39:21;9.70;99.90
27667;DHT22;15074;50.940;5.282;2022-11-18T16:41:53;9.70;99.90
27667;DHT22;15074;50.940;5.282;2022-11-18T16:44:19;9.70;99.90
27667;DHT22;15074;50.940;5.282;2022-11-18T16:46:55;9.60;99.90
27667;DHT22;15074;50.940;5.282;2022-11-18T16:49:23;9.60;99.90
27667;DHT22;15074;50.940;5.282;2022-11-18T16:51:51;9.60;99.90
27667;DHT22;15074;50.940;5.282;2022-11-18T16:54:25;9.60;99.90
27667;DHT22;15074;50.940;5.282;2022-11-18T16:56:52;9.50;99.90
27667;DHT22;15074;50.940;5.282;2022-11-18T16:59:20;9.30;99.90
27667;DHT22;15074;50.940;5.282;2022-11-18T17:01:47;9.20;99.90
27667;DHT22;15074;50.940;5.282;2022-11-18T17:04:12;9.20;99.90
27667;DHT22;15074;50.940;5.282;2022-11-18T17:06:39;9.30;99.90
27667;DHT22;15074;50.940;5.282;2022-11-18T17:09:06;9.40;99.90
27667;DHT22;15074;50.940;5.282;2022-11-18T17:11:32;9.30;99.90
27667;DHT22;15074;50.940;5.282;2022-11-18T17:13:58;9.10;99.90
27667;DHT22;15074;50.940;5.282;2022-11-18T17:16:25;9.10;99.90
27667;DHT22;15074;50.940;5.282;2022-11-18T17:18:55;9.10;99.90
27667;DHT22;15074;50.940;5.282;2022-11-18T17:21:21;9.00;99.90
27667;DHT22;15074;50.940;5.282;2022-11-18T17:23:48;9.10;99.90
27667;DHT22;15074;50.940;5.282;2022-11-18T17:26:15;9.00;99.90
27667;DHT22;15074;50.940;5.282;2022-11-18T17:28:41;9.00;99.90
27667;DHT22;15074;50.940;5.282;2022-11-18T17:31:08;9.00;99.90
27667;DHT22;15074;50.940;5.282;2022-11-18T17:33:35;9.00;99.90
27667;DHT22;15074;50.940;5.282;2022-11-18T17:36:06;9.00;99.90
27667;DHT22;15074;50.940;5.282;2022-11-18T17:38:37;9.00;99.90
27667;DHT22;15074;50.940;5.282;2022-11-18T17:41:04;9.00;99.90
27667;DHT22;15074;50.940;5.282;2022-11-18T17:43:30;9.00;99.90
27667;DHT22;15074;50.940;5.282;2022-11-18T17:45:57;9.00;99.90
27667;DHT22;15074;50.940;5.282;2022-11-18T17:48:25;9.00;99.90
27667;DHT22;15074;50.940;5.282;2022-11-18T17:50:51;9.00;99.90
27667;DHT22;15074;50.940;5.282;2022-11-18T17:53:18;9.00;99.90
27667;DHT22;15074;50.940;5.282;2022-11-18T17:55:47;9.00;99.90
27667;DHT22;15074;50.940;5.282;2022-11-18T17:58:13;9.00;99.90
27667;DHT22;15074;50.940;5.282;2022-11-18T18:00:39;9.10;99.90
27667;DHT22;15074;50.940;5.282;2022-11-18T18:03:05;9.10;99.90
27667;DHT22;15074;50.940;5.282;2022-11-18T18:05:31;9.10;99.90
27667;DHT22;15074;50.940;5.282;2022-11-18T18:07:57;9.10;99.90
27667;DHT22;15074;50.940;5.282;2022-11-18T18:10:24;9.00;99.90
27667;DHT22;15074;50.940;5.282;2022-11-18T18:12:50;9.00;99.90
27667;DHT22;15074;50.940;5.282;2022-11-18T18:15:35;9.00;99.90
27667;DHT22;15074;50.940;5.282;2022-11-18T18:18:01;9.10;99.90
27667;DHT22;15074;50.940;5.282;2022-11-18T18:20:27;9.10;99.90
27667;DHT22;15074;50.940;5.282;2022-11-18T18:22:53;9.10;99.90
27667;DHT22;15074;50.940;5.282;2022-11-18T18:25:20;9.10;99.90
27667;DHT22;15074;50.940;5.282;2022-11-18T18:27:46;9.10;99.90
27667;DHT22;15074;50.940;5.282;2022-11-18T18:30:13;9.10;99.90
27667;DHT22;15074;50.940;5.282;2022-11-18T18:32:39;9.20;99.90
27667;DHT22;15074;50.940;5.282;2022-11-18T18:35:05;9.20;99.90